sensor_id;sensor_type;location;lat;lon;timestamp;P1;durP1;ratioP1;P2;durP2;ratioP2
35745;SDS011;21870;42.812;74.628;2023-03-03T00:02:23;9.65;;;5.05;;
35745;SDS011;21870;42.812;74.628;2023-03-03T00:04:50;6.78;;;4.38;;
35745;SDS011;21870;42.812;74.628;2023-03-03T00:07:16;5.03;;;4.15;;
35745;SDS011;21870;42.812;74.628;2023-03-03T00:09:47;8.07;;;4.70;;
35745;SDS011;21870;42.812;74.628;2023-03-03T00:12:32;5.10;;;4.53;;
35745;SDS011;21870;42.812;74.628;2023-03-03T00:14:59;6.60;;;5.00;;
35745;SDS011;21870;42.812;74.628;2023-03-03T00:17:38;7.50;;;5.65;;
35745;SDS011;21870;42.812;74.628;2023-03-03T00:20:21;11.13;;;5.72;;
35745;SDS011;21870;42.812;74.628;2023-03-03T00:23:41;11.63;;;5.80;;
35745;SDS011;21870;42.812;74.628;2023-03-03T00:25:45;9.45;;;5.68;;
35745;SDS011;21870;42.812;74.628;2023-03-03T00:30:55;10.77;;;5.57;;
35745;SDS011;21870;42.812;74.628;2023-03-03T00:38:47;12.25;;;6.18;;
35745;SDS011;21870;42.812;74.628;2023-03-03T00:41:24;12.30;;;6.45;;
35745;SDS011;21870;42.812;74.628;2023-03-03T00:43:51;12.30;;;5.88;;
35745;SDS011;21870;42.812;74.628;2023-03-03T00:46:19;10.98;;;5.75;;
35745;SDS011;21870;42.812;74.628;2023-03-03T00:48:48;11.10;;;5.07;;
35745;SDS011;21870;42.812;74.628;2023-03-03T00:51:22;15.43;;;4.93;;
35745;SDS011;21870;42.812;74.628;2023-03-03T00:53:52;8.80;;;4.80;;
35745;SDS011;21870;42.812;74.628;2023-03-03T00:56:19;11.85;;;4.68;;
35745;SDS011;21870;42.812;74.628;2023-03-03T00:58:46;12.88;;;5.15;;
35745;SDS011;21870;42.812;74.628;2023-03-03T01:01:13;8.88;;;4.68;;
35745;SDS011;21870;42.812;74.628;2023-03-03T01:03:40;18.15;;;5.13;;
35745;SDS011;21870;42.812;74.628;2023-03-03T01:06:06;6.35;;;3.80;;
35745;SDS011;21870;42.812;74.628;2023-03-03T01:08:32;8.98;;;4.93;;
35745;SDS011;21870;42.812;74.628;2023-03-03T01:11:02;11.68;;;5.20;;
35745;SDS011;21870;42.812;74.628;2023-03-03T01:13:32;8.77;;;4.50;;
35745;SDS011;21870;42.812;74.628;2023-03-03T01:16:00;10.05;;;4.60;;
35745;SDS011;21870;42.812;74.628;2023-03-03T01:18:28;12.10;;;5.60;;
35745;SDS011;21870;42.812;74.628;2023-03-03T01:20:54;10.00;;;7.03;;
35745;SDS011;21870;42.812;74.628;2023-03-03T01:23:20;15.45;;;5.95;;
35745;SDS011;21870;42.812;74.628;2023-03-03T01:25:46;12.45;;;5.78;;
35745;SDS011;21870;42.812;74.628;2023-03-03T01:28:12;11.00;;;5.50;;
35745;SDS011;21870;42.812;74.628;2023-03-03T01:30:38;17.08;;;6.75;;
35745;SDS011;21870;42.812;74.628;2023-03-03T01:33:04;25.73;;;6.85;;
35745;SDS011;21870;42.812;74.628;2023-03-03T01:35:30;25.77;;;6.80;;
35745;SDS011;21870;42.812;74.628;2023-03-03T01:37:57;13.70;;;6.40;;
35745;SDS011;21870;42.812;74.628;2023-03-03T01:40:26;14.45;;;6.03;;
35745;SDS011;21870;42.812;74.628;2023-03-03T01:42:55;11.65;;;5.15;;
35745;SDS011;21870;42.812;74.628;2023-03-03T01:45:27;9.95;;;5.30;;
35745;SDS011;21870;42.812;74.628;2023-03-03T01:48:22;7.50;;;4.40;;
35745;SDS011;21870;42.812;74.628;2023-03-03T01:53:35;10.82;;;6.03;;
35745;SDS011;21870;42.812;74.628;2023-03-03T01:56:06;17.60;;;5.25;;
35745;SDS011;21870;42.812;74.628;2023-03-03T01:58:35;14.50;;;5.97;;
35745;SDS011;21870;42.812;74.628;2023-03-03T02:01:10;52.30;;;9.93;;
35745;SDS011;21870;42.812;74.628;2023-03-03T02:03:39;20.90;;;5.15;;
35745;SDS011;21870;42.812;74.628;2023-03-03T02:06:07;14.52;;;3.47;;
35745;SDS011;21870;42.812;74.628;2023-03-03T02:08:43;4.50;;;2.72;;
35745;SDS011;21870;42.812;74.628;2023-03-03T02:11:31;16.85;;;7.07;;
35745;SDS011;21870;42.812;74.628;2023-03-03T02:14:00;6.63;;;3.03;;
35745;SDS011;21870;42.812;74.628;2023-03-03T02:16:26;5.82;;;3.00;;
35745;SDS011;21870;42.812;74.628;2023-03-03T02:18:53;4.07;;;2.97;;
35745;SDS011;21870;42.812;74.628;2023-03-03T02:21:20;9.82;;;3.40;;
35745;SDS011;21870;42.812;74.628;2023-03-03T02:26:39;7.82;;;3.67;;
35745;SDS011;21870;42.812;74.628;2023-03-03T02:29:07;8.60;;;3.72;;
35745;SDS011;21870;42.812;74.628;2023-03-03T02:31:34;8.55;;;3.88;;
35745;SDS011;21870;42.812;74.628;2023-03-03T02:34:03;6.30;;;3.53;;
35745;SDS011;21870;42.812;74.628;2023-03-03T02:36:33;6.93;;;3.92;;
35745;SDS011;21870;42.812;74.628;2023-03-03T02:39:06;7.57;;;3.58;;
35745;SDS011;21870;42.812;74.628;2023-03-03T02:44:25;8.52;;;3.88;;
35745;SDS011;21870;42.812;74.628;2023-03-03T02:46:54;18.17;;;10.30;;
35745;SDS011;21870;42.812;74.628;2023-03-03T02:49:25;21.52;;;6.13;;
35745;SDS011;21870;42.812;74.628;2023-03-03T02:51:52;10.85;;;4.43;;
35745;SDS011;21870;42.812;74.628;2023-03-03T02:54:19;15.93;;;4.90;;
35745;SDS011;21870;42.812;74.628;2023-03-03T02:56:48;23.02;;;6.65;;
35745;SDS011;21870;42.812;74.628;2023-03-03T02:59:14;16.60;;;5.47;;
35745;SDS011;21870;42.812;74.628;2023-03-03T03:01:40;29.35;;;8.82;;
35745;SDS011;21870;42.812;74.628;2023-03-03T03:04:08;39.00;;;9.02;;
35745;SDS011;21870;42.812;74.628;2023-03-03T03:06:39;23.88;;;6.88;;
35745;SDS011;21870;42.812;74.628;2023-03-03T03:09:06;29.63;;;6.75;;
35745;SDS011;21870;42.812;74.628;2023-03-03T03:11:33;21.35;;;7.38;;
35745;SDS011;21870;42.812;74.628;2023-03-03T03:14:00;8.55;;;3.75;;
35745;SDS011;21870;42.812;74.628;2023-03-03T03:16:27;7.43;;;3.92;;
35745;SDS011;21870;42.812;74.628;2023-03-03T03:18:53;6.82;;;3.90;;
35745;SDS011;21870;42.812;74.628;2023-03-03T03:21:20;14.80;;;4.53;;
35745;SDS011;21870;42.812;74.628;2023-03-03T03:23:46;11.70;;;3.92;;
35745;SDS011;21870;42.812;74.628;2023-03-03T03:26:12;12.82;;;4.55;;
35745;SDS011;21870;42.812;74.628;2023-03-03T03:28:38;17.15;;;8.27;;
35745;SDS011;21870;42.812;74.628;2023-03-03T03:31:05;14.60;;;5.00;;
35745;SDS011;21870;42.812;74.628;2023-03-03T03:33:32;7.63;;;4.10;;
35745;SDS011;21870;42.812;74.628;2023-03-03T03:35:58;5.68;;;3.33;;
35745;SDS011;21870;42.812;74.628;2023-03-03T03:38:25;11.13;;;3.95;;
35745;SDS011;21870;42.812;74.628;2023-03-03T03:40:53;5.70;;;3.28;;
35745;SDS011;21870;42.812;74.628;2023-03-03T03:43:20;8.20;;;3.60;;
35745;SDS011;21870;42.812;74.628;2023-03-03T03:45:46;8.57;;;4.20;;
35745;SDS011;21870;42.812;74.628;2023-03-03T03:48:12;8.60;;;3.40;;
35745;SDS011;21870;42.812;74.628;2023-03-03T03:50:39;4.68;;;3.10;;
35745;SDS011;21870;42.812;74.628;2023-03-03T03:53:06;33.58;;;6.45;;
35745;SDS011;21870;42.812;74.628;2023-03-03T03:55:32;15.82;;;5.35;;
35745;SDS011;21870;42.812;74.628;2023-03-03T03:57:58;23.80;;;8.80;;
35745;SDS011;21870;42.812;74.628;2023-03-03T04:00:25;16.42;;;7.80;;
35745;SDS011;21870;42.812;74.628;2023-03-03T04:02:51;24.88;;;8.63;;
35745;SDS011;21870;42.812;74.628;2023-03-03T04:05:17;31.20;;;8.02;;
35745;SDS011;21870;42.812;74.628;2023-03-03T04:07:44;35.38;;;8.90;;
35745;SDS011;21870;42.812;74.628;2023-03-03T04:10:10;29.92;;;7.63;;
35745;SDS011;21870;42.812;74.628;2023-03-03T04:12:37;29.92;;;7.32;;
35745;SDS011;21870;42.812;74.628;2023-03-03T04:15:04;24.73;;;7.63;;
35745;SDS011;21870;42.812;74.628;2023-03-03T04:17:35;17.80;;;6.05;;
35745;SDS011;21870;42.812;74.628;2023-03-03T04:20:01;26.02;;;6.78;;
35745;SDS011;21870;42.812;74.628;2023-03-03T04:22:28;41.58;;;6.43;;
35745;SDS011;21870;42.812;74.628;2023-03-03T04:24:58;38.88;;;8.38;;
35745;SDS011;21870;42.812;74.628;2023-03-03T04:27:32;43.55;;;7.25;;
35745;SDS011;21870;42.812;74.628;2023-03-03T04:30:00;41.53;;;9.50;;
35745;SDS011;21870;42.812;74.628;2023-03-03T04:32:26;52.25;;;8.95;;
35745;SDS011;21870;42.812;74.628;2023-03-03T04:34:52;38.55;;;8.75;;
35745;SDS011;21870;42.812;74.628;2023-03-03T04:37:18;38.50;;;10.15;;
35745;SDS011;21870;42.812;74.628;2023-03-03T04:39:45;42.03;;;9.00;;
35745;SDS011;21870;42.812;74.628;2023-03-03T04:42:11;42.83;;;8.65;;
35745;SDS011;21870;42.812;74.628;2023-03-03T04:44:37;31.02;;;7.18;;
35745;SDS011;21870;42.812;74.628;2023-03-03T04:47:03;36.08;;;7.30;;
35745;SDS011;21870;42.812;74.628;2023-03-03T04:49:29;39.38;;;7.63;;
35745;SDS011;21870;42.812;74.628;2023-03-03T04:51:56;36.50;;;7.47;;
35745;SDS011;21870;42.812;74.628;2023-03-03T04:54:22;43.83;;;8.93;;
35745;SDS011;21870;42.812;74.628;2023-03-03T04:56:48;46.05;;;13.43;;
35745;SDS011;21870;42.812;74.628;2023-03-03T04:59:14;39.83;;;9.80;;
35745;SDS011;21870;42.812;74.628;2023-03-03T05:01:40;39.42;;;8.82;;
35745;SDS011;21870;42.812;74.628;2023-03-03T05:04:07;50.58;;;9.13;;
35745;SDS011;21870;42.812;74.628;2023-03-03T05:06:33;40.70;;;8.52;;
35745;SDS011;21870;42.812;74.628;2023-03-03T05:09:02;41.67;;;8.15;;
35745;SDS011;21870;42.812;74.628;2023-03-03T05:11:28;16.65;;;6.97;;
35745;SDS011;21870;42.812;74.628;2023-03-03T05:13:56;32.75;;;8.50;;
35745;SDS011;21870;42.812;74.628;2023-03-03T05:16:22;34.03;;;10.07;;
35745;SDS011;21870;42.812;74.628;2023-03-03T05:18:49;28.70;;;9.57;;
35745;SDS011;21870;42.812;74.628;2023-03-03T05:21:15;22.60;;;8.85;;
35745;SDS011;21870;42.812;74.628;2023-03-03T05:23:41;25.88;;;9.35;;
35745;SDS011;21870;42.812;74.628;2023-03-03T05:26:07;18.17;;;6.50;;
35745;SDS011;21870;42.812;74.628;2023-03-03T05:28:33;21.15;;;8.07;;
35745;SDS011;21870;42.812;74.628;2023-03-03T05:30:59;25.08;;;9.35;;
35745;SDS011;21870;42.812;74.628;2023-03-03T05:33:25;68.00;;;12.02;;
35745;SDS011;21870;42.812;74.628;2023-03-03T05:35:55;47.42;;;10.30;;
35745;SDS011;21870;42.812;74.628;2023-03-03T05:38:22;21.75;;;6.15;;
35745;SDS011;21870;42.812;74.628;2023-03-03T05:40:49;24.58;;;7.03;;
35745;SDS011;21870;42.812;74.628;2023-03-03T05:43:15;35.05;;;7.70;;
35745;SDS011;21870;42.812;74.628;2023-03-03T05:45:41;20.00;;;4.20;;
35745;SDS011;21870;42.812;74.628;2023-03-03T05:48:08;7.72;;;3.08;;
35745;SDS011;21870;42.812;74.628;2023-03-03T05:50:34;10.45;;;3.38;;
35745;SDS011;21870;42.812;74.628;2023-03-03T05:53:02;7.20;;;2.80;;
35745;SDS011;21870;42.812;74.628;2023-03-03T05:55:28;8.25;;;3.05;;
35745;SDS011;21870;42.812;74.628;2023-03-03T05:57:54;6.13;;;2.80;;
35745;SDS011;21870;42.812;74.628;2023-03-03T06:00:21;7.35;;;2.92;;
35745;SDS011;21870;42.812;74.628;2023-03-03T06:02:47;5.65;;;3.13;;
35745;SDS011;21870;42.812;74.628;2023-03-03T06:05:13;6.60;;;3.22;;
35745;SDS011;21870;42.812;74.628;2023-03-03T06:07:39;8.73;;;3.22;;
35745;SDS011;21870;42.812;74.628;2023-03-03T06:10:06;5.78;;;3.03;;
35745;SDS011;21870;42.812;74.628;2023-03-03T06:12:32;11.80;;;4.68;;
35745;SDS011;21870;42.812;74.628;2023-03-03T06:14:59;13.25;;;4.50;;
35745;SDS011;21870;42.812;74.628;2023-03-03T06:17:25;9.75;;;4.80;;
35745;SDS011;21870;42.812;74.628;2023-03-03T06:19:51;17.50;;;3.92;;
35745;SDS011;21870;42.812;74.628;2023-03-03T06:22:17;12.63;;;3.63;;
35745;SDS011;21870;42.812;74.628;2023-03-03T06:24:44;7.07;;;3.30;;
35745;SDS011;21870;42.812;74.628;2023-03-03T06:27:11;9.18;;;2.83;;
35745;SDS011;21870;42.812;74.628;2023-03-03T06:29:37;5.38;;;3.30;;
35745;SDS011;21870;42.812;74.628;2023-03-03T06:32:04;12.95;;;3.20;;
35745;SDS011;21870;42.812;74.628;2023-03-03T06:34:30;13.98;;;5.05;;
35745;SDS011;21870;42.812;74.628;2023-03-03T06:36:56;8.07;;;3.78;;
35745;SDS011;21870;42.812;74.628;2023-03-03T06:39:22;8.57;;;4.72;;
35745;SDS011;21870;42.812;74.628;2023-03-03T06:41:48;11.70;;;4.57;;
35745;SDS011;21870;42.812;74.628;2023-03-03T06:44:14;18.52;;;5.97;;
35745;SDS011;21870;42.812;74.628;2023-03-03T06:46:40;17.90;;;6.25;;
35745;SDS011;21870;42.812;74.628;2023-03-03T06:49:06;7.97;;;3.88;;
35745;SDS011;21870;42.812;74.628;2023-03-03T06:51:33;8.05;;;3.72;;
35745;SDS011;21870;42.812;74.628;2023-03-03T06:54:09;16.58;;;5.78;;
35745;SDS011;21870;42.812;74.628;2023-03-03T06:56:43;7.30;;;4.47;;
35745;SDS011;21870;42.812;74.628;2023-03-03T06:59:11;8.30;;;3.40;;
35745;SDS011;21870;42.812;74.628;2023-03-03T07:01:43;6.35;;;2.83;;
35745;SDS011;21870;42.812;74.628;2023-03-03T07:04:30;13.77;;;3.85;;
35745;SDS011;21870;42.812;74.628;2023-03-03T07:06:59;5.55;;;3.10;;
35745;SDS011;21870;42.812;74.628;2023-03-03T07:09:39;9.18;;;3.97;;
35745;SDS011;21870;42.812;74.628;2023-03-03T07:12:08;4.82;;;2.80;;
35745;SDS011;21870;42.812;74.628;2023-03-03T07:14:47;11.60;;;3.15;;
35745;SDS011;21870;42.812;74.628;2023-03-03T07:17:20;11.68;;;2.78;;
35745;SDS011;21870;42.812;74.628;2023-03-03T07:19:48;11.20;;;3.17;;
35745;SDS011;21870;42.812;74.628;2023-03-03T07:22:18;13.73;;;4.40;;
35745;SDS011;21870;42.812;74.628;2023-03-03T07:24:50;8.32;;;3.72;;
35745;SDS011;21870;42.812;74.628;2023-03-03T07:29:48;10.95;;;4.07;;
35745;SDS011;21870;42.812;74.628;2023-03-03T07:34:53;5.78;;;3.42;;
35745;SDS011;21870;42.812;74.628;2023-03-03T07:37:36;5.40;;;3.30;;
35745;SDS011;21870;42.812;74.628;2023-03-03T07:40:24;5.63;;;3.05;;
35745;SDS011;21870;42.812;74.628;2023-03-03T07:45:48;9.65;;;3.38;;
35745;SDS011;21870;42.812;74.628;2023-03-03T07:48:16;7.07;;;2.90;;
35745;SDS011;21870;42.812;74.628;2023-03-03T07:50:49;16.95;;;3.85;;
35745;SDS011;21870;42.812;74.628;2023-03-03T07:53:25;17.38;;;4.72;;
35745;SDS011;21870;42.812;74.628;2023-03-03T07:55:59;14.10;;;4.20;;
35745;SDS011;21870;42.812;74.628;2023-03-03T07:58:36;10.23;;;3.72;;
35745;SDS011;21870;42.812;74.628;2023-03-03T08:03:53;9.32;;;4.80;;
35745;SDS011;21870;42.812;74.628;2023-03-03T08:08:50;12.80;;;4.97;;
35745;SDS011;21870;42.812;74.628;2023-03-03T08:11:17;8.52;;;4.53;;
35745;SDS011;21870;42.812;74.628;2023-03-03T08:13:43;16.17;;;5.72;;
35745;SDS011;21870;42.812;74.628;2023-03-03T08:18:37;10.70;;;4.57;;
35745;SDS011;21870;42.812;74.628;2023-03-03T08:21:12;14.98;;;4.72;;
35745;SDS011;21870;42.812;74.628;2023-03-03T08:23:41;16.67;;;5.43;;
35745;SDS011;21870;42.812;74.628;2023-03-03T08:26:07;12.85;;;4.97;;
35745;SDS011;21870;42.812;74.628;2023-03-03T08:28:33;15.00;;;4.97;;
35745;SDS011;21870;42.812;74.628;2023-03-03T08:30:59;20.98;;;5.70;;
35745;SDS011;21870;42.812;74.628;2023-03-03T08:33:26;13.57;;;4.93;;
35745;SDS011;21870;42.812;74.628;2023-03-03T08:35:52;18.67;;;6.72;;
35745;SDS011;21870;42.812;74.628;2023-03-03T08:38:19;30.55;;;6.88;;
35745;SDS011;21870;42.812;74.628;2023-03-03T08:40:46;25.15;;;8.02;;
35745;SDS011;21870;42.812;74.628;2023-03-03T08:43:13;25.85;;;9.43;;
35745;SDS011;21870;42.812;74.628;2023-03-03T08:45:45;50.95;;;16.00;;
35745;SDS011;21870;42.812;74.628;2023-03-03T08:48:17;32.30;;;11.00;;
35745;SDS011;21870;42.812;74.628;2023-03-03T08:50:44;20.70;;;10.27;;
35745;SDS011;21870;42.812;74.628;2023-03-03T08:53:10;16.60;;;9.57;;
35745;SDS011;21870;42.812;74.628;2023-03-03T08:55:37;48.80;;;12.85;;
35745;SDS011;21870;42.812;74.628;2023-03-03T08:58:04;34.22;;;9.55;;
35745;SDS011;21870;42.812;74.628;2023-03-03T09:00:30;37.95;;;13.35;;
35745;SDS011;21870;42.812;74.628;2023-03-03T09:02:56;39.33;;;11.30;;
35745;SDS011;21870;42.812;74.628;2023-03-03T09:05:23;25.85;;;8.73;;
35745;SDS011;21870;42.812;74.628;2023-03-03T09:07:50;22.52;;;9.40;;
35745;SDS011;21870;42.812;74.628;2023-03-03T09:10:19;27.95;;;9.77;;
35745;SDS011;21870;42.812;74.628;2023-03-03T09:12:56;27.08;;;9.23;;
35745;SDS011;21870;42.812;74.628;2023-03-03T09:15:32;70.10;;;13.38;;
35745;SDS011;21870;42.812;74.628;2023-03-03T09:20:35;29.50;;;7.75;;
35745;SDS011;21870;42.812;74.628;2023-03-03T09:25:48;22.88;;;8.10;;
35745;SDS011;21870;42.812;74.628;2023-03-03T09:28:31;31.63;;;9.82;;
35745;SDS011;21870;42.812;74.628;2023-03-03T09:31:01;22.90;;;8.68;;
35745;SDS011;21870;42.812;74.628;2023-03-03T09:33:42;25.17;;;8.60;;
35745;SDS011;21870;42.812;74.628;2023-03-03T09:36:28;22.42;;;7.57;;
35745;SDS011;21870;42.812;74.628;2023-03-03T09:39:00;33.17;;;10.60;;
35745;SDS011;21870;42.812;74.628;2023-03-03T09:50:05;16.60;;;7.75;;
35745;SDS011;21870;42.812;74.628;2023-03-03T10:12:46;24.17;;;8.93;;
35745;SDS011;21870;42.812;74.628;2023-03-03T10:15:24;27.63;;;9.48;;
35745;SDS011;21870;42.812;74.628;2023-03-03T10:18:08;26.40;;;9.20;;
35745;SDS011;21870;42.812;74.628;2023-03-03T10:20:48;33.20;;;11.10;;
35745;SDS011;21870;42.812;74.628;2023-03-03T10:26:50;18.90;;;7.10;;
35745;SDS011;21870;42.812;74.628;2023-03-03T10:29:28;32.80;;;9.73;;
35745;SDS011;21870;42.812;74.628;2023-03-03T10:59:30;36.55;;;8.60;;
35745;SDS011;21870;42.812;74.628;2023-03-03T11:01:58;44.15;;;10.10;;
35745;SDS011;21870;42.812;74.628;2023-03-03T11:07:09;46.80;;;10.10;;
35745;SDS011;21870;42.812;74.628;2023-03-03T11:13:02;54.70;;;10.52;;
35745;SDS011;21870;42.812;74.628;2023-03-03T11:16:21;159.20;;;20.15;;
35745;SDS011;21870;42.812;74.628;2023-03-03T11:23:42;86.28;;;13.98;;
35745;SDS011;21870;42.812;74.628;2023-03-03T11:31:54;54.97;;;13.70;;
35745;SDS011;21870;42.812;74.628;2023-03-03T11:37:46;68.28;;;13.82;;
35745;SDS011;21870;42.812;74.628;2023-03-03T11:46:13;51.35;;;12.57;;
35745;SDS011;21870;42.812;74.628;2023-03-03T11:56:49;38.90;;;11.93;;
35745;SDS011;21870;42.812;74.628;2023-03-03T11:59:38;53.70;;;11.32;;
35745;SDS011;21870;42.812;74.628;2023-03-03T12:02:32;37.10;;;11.25;;
35745;SDS011;21870;42.812;74.628;2023-03-03T12:05:26;44.78;;;11.82;;
35745;SDS011;21870;42.812;74.628;2023-03-03T12:13:49;60.72;;;12.98;;
35745;SDS011;21870;42.812;74.628;2023-03-03T12:24:37;68.60;;;15.63;;
35745;SDS011;21870;42.812;74.628;2023-03-03T12:38:16;33.42;;;13.02;;
35745;SDS011;21870;42.812;74.628;2023-03-03T12:40:50;39.28;;;13.63;;
35745;SDS011;21870;42.812;74.628;2023-03-03T12:43:38;38.33;;;12.07;;
35745;SDS011;21870;42.812;74.628;2023-03-03T12:46:34;34.47;;;14.05;;
35745;SDS011;21870;42.812;74.628;2023-03-03T12:49:14;48.88;;;14.60;;
35745;SDS011;21870;42.812;74.628;2023-03-03T13:05:01;25.73;;;14.90;;
35745;SDS011;21870;42.812;74.628;2023-03-03T13:13:31;25.60;;;15.07;;
35745;SDS011;21870;42.812;74.628;2023-03-03T13:19:19;28.95;;;16.45;;
35745;SDS011;21870;42.812;74.628;2023-03-03T13:21:53;33.28;;;18.25;;
35745;SDS011;21870;42.812;74.628;2023-03-03T13:29:36;39.45;;;20.83;;
35745;SDS011;21870;42.812;74.628;2023-03-03T13:32:22;33.40;;;18.35;;
35745;SDS011;21870;42.812;74.628;2023-03-03T13:37:35;32.05;;;16.63;;
35745;SDS011;21870;42.812;74.628;2023-03-03T13:45:16;34.08;;;20.65;;
35745;SDS011;21870;42.812;74.628;2023-03-03T13:50:32;41.45;;;24.27;;
35745;SDS011;21870;42.812;74.628;2023-03-03T14:06:59;32.60;;;16.85;;
35745;SDS011;21870;42.812;74.628;2023-03-03T14:12:28;28.63;;;19.20;;
35745;SDS011;21870;42.812;74.628;2023-03-03T14:15:15;26.25;;;15.32;;
35745;SDS011;21870;42.812;74.628;2023-03-03T14:21:02;25.80;;;16.80;;
35745;SDS011;21870;42.812;74.628;2023-03-03T14:26:29;31.63;;;18.70;;
35745;SDS011;21870;42.812;74.628;2023-03-03T14:32:00;32.38;;;18.00;;
35745;SDS011;21870;42.812;74.628;2023-03-03T14:34:44;29.13;;;18.48;;
35745;SDS011;21870;42.812;74.628;2023-03-03T14:37:21;36.15;;;19.70;;
35745;SDS011;21870;42.812;74.628;2023-03-03T14:39:59;38.17;;;20.15;;
35745;SDS011;21870;42.812;74.628;2023-03-03T14:42:48;41.30;;;20.25;;
35745;SDS011;21870;42.812;74.628;2023-03-03T14:45:39;36.90;;;19.65;;
35745;SDS011;21870;42.812;74.628;2023-03-03T14:50:40;38.30;;;20.23;;
35745;SDS011;21870;42.812;74.628;2023-03-03T14:53:19;27.48;;;19.77;;
35745;SDS011;21870;42.812;74.628;2023-03-03T14:58:48;38.90;;;20.88;;
35745;SDS011;21870;42.812;74.628;2023-03-03T15:01:31;29.92;;;18.58;;
35745;SDS011;21870;42.812;74.628;2023-03-03T15:06:48;24.75;;;17.38;;
35745;SDS011;21870;42.812;74.628;2023-03-03T15:09:38;24.42;;;15.98;;
35745;SDS011;21870;42.812;74.628;2023-03-03T15:14:44;29.55;;;18.33;;
35745;SDS011;21870;42.812;74.628;2023-03-03T15:17:52;38.13;;;18.45;;
35745;SDS011;21870;42.812;74.628;2023-03-03T15:20:12;32.80;;;19.77;;
35745;SDS011;21870;42.812;74.628;2023-03-03T15:28:21;52.63;;;34.58;;
35745;SDS011;21870;42.812;74.628;2023-03-03T15:34:00;56.25;;;35.75;;
35745;SDS011;21870;42.812;74.628;2023-03-03T15:36:38;44.75;;;32.65;;
35745;SDS011;21870;42.812;74.628;2023-03-03T15:42:17;49.67;;;34.17;;
35745;SDS011;21870;42.812;74.628;2023-03-03T16:01:09;62.45;;;41.00;;
35745;SDS011;21870;42.812;74.628;2023-03-03T16:03:46;59.05;;;42.90;;
35745;SDS011;21870;42.812;74.628;2023-03-03T16:12:02;53.80;;;41.50;;
35745;SDS011;21870;42.812;74.628;2023-03-03T16:22:46;46.90;;;31.27;;
35745;SDS011;21870;42.812;74.628;2023-03-03T16:31:32;45.50;;;33.92;;
35745;SDS011;21870;42.812;74.628;2023-03-03T16:34:53;43.60;;;34.25;;
35745;SDS011;21870;42.812;74.628;2023-03-03T16:39:55;44.13;;;31.98;;
35745;SDS011;21870;42.812;74.628;2023-03-03T16:42:41;54.88;;;35.60;;
35745;SDS011;21870;42.812;74.628;2023-03-03T16:45:11;53.03;;;34.22;;
35745;SDS011;21870;42.812;74.628;2023-03-03T17:01:40;288.95;;;187.02;;
35745;SDS011;21870;42.812;74.628;2023-03-03T17:04:48;80.55;;;63.80;;
35745;SDS011;21870;42.812;74.628;2023-03-03T17:10:14;67.03;;;46.30;;
35745;SDS011;21870;42.812;74.628;2023-03-03T17:24:29;46.22;;;32.55;;
35745;SDS011;21870;42.812;74.628;2023-03-03T17:27:37;46.67;;;32.75;;
35745;SDS011;21870;42.812;74.628;2023-03-03T17:30:15;39.65;;;29.80;;
35745;SDS011;21870;42.812;74.628;2023-03-03T17:47:33;32.03;;;23.60;;
35745;SDS011;21870;42.812;74.628;2023-03-03T18:07:30;33.65;;;25.65;;
35745;SDS011;21870;42.812;74.628;2023-03-03T18:09:50;38.15;;;25.88;;
35745;SDS011;21870;42.812;74.628;2023-03-03T18:15:15;39.95;;;26.10;;
35745;SDS011;21870;42.812;74.628;2023-03-03T18:18:01;38.13;;;27.08;;
35745;SDS011;21870;42.812;74.628;2023-03-03T18:23:36;31.92;;;24.92;;
35745;SDS011;21870;42.812;74.628;2023-03-03T18:42:41;40.03;;;27.92;;
35745;SDS011;21870;42.812;74.628;2023-03-03T18:50:38;42.90;;;27.30;;
35745;SDS011;21870;42.812;74.628;2023-03-03T18:55:55;38.63;;;24.60;;
35745;SDS011;21870;42.812;74.628;2023-03-03T18:58:33;34.15;;;24.45;;
35745;SDS011;21870;42.812;74.628;2023-03-03T19:03:59;43.00;;;27.00;;
35745;SDS011;21870;42.812;74.628;2023-03-03T19:06:29;42.53;;;29.10;;
35745;SDS011;21870;42.812;74.628;2023-03-03T19:09:01;44.25;;;28.55;;
35745;SDS011;21870;42.812;74.628;2023-03-03T19:14:13;50.22;;;30.70;;
35745;SDS011;21870;42.812;74.628;2023-03-03T19:16:50;48.75;;;29.55;;
35745;SDS011;21870;42.812;74.628;2023-03-03T19:19:18;43.80;;;32.10;;
35745;SDS011;21870;42.812;74.628;2023-03-03T19:21:47;40.72;;;30.88;;
35745;SDS011;21870;42.812;74.628;2023-03-03T19:24:29;46.40;;;30.55;;
35745;SDS011;21870;42.812;74.628;2023-03-03T19:27:03;47.80;;;34.45;;
35745;SDS011;21870;42.812;74.628;2023-03-03T19:32:26;47.65;;;33.80;;
35745;SDS011;21870;42.812;74.628;2023-03-03T19:40:43;42.25;;;31.23;;
35745;SDS011;21870;42.812;74.628;2023-03-03T19:43:23;43.92;;;28.65;;
35745;SDS011;21870;42.812;74.628;2023-03-03T19:51:33;54.85;;;30.10;;
35745;SDS011;21870;42.812;74.628;2023-03-03T19:56:53;38.15;;;24.10;;
35745;SDS011;21870;42.812;74.628;2023-03-03T20:01:57;42.28;;;23.95;;
35745;SDS011;21870;42.812;74.628;2023-03-03T20:04:40;35.58;;;22.02;;
35745;SDS011;21870;42.812;74.628;2023-03-03T20:07:38;30.40;;;20.35;;
35745;SDS011;21870;42.812;74.628;2023-03-03T20:26:08;25.08;;;16.85;;
35745;SDS011;21870;42.812;74.628;2023-03-03T20:35:02;26.45;;;15.95;;
35745;SDS011;21870;42.812;74.628;2023-03-03T20:37:44;24.58;;;14.95;;
35745;SDS011;21870;42.812;74.628;2023-03-03T20:43:43;25.63;;;14.75;;
35745;SDS011;21870;42.812;74.628;2023-03-03T20:46:27;22.85;;;15.55;;
35745;SDS011;21870;42.812;74.628;2023-03-03T20:57:26;27.52;;;16.98;;
35745;SDS011;21870;42.812;74.628;2023-03-03T21:05:58;28.52;;;17.13;;
35745;SDS011;21870;42.812;74.628;2023-03-03T21:11:14;25.48;;;15.75;;
35745;SDS011;21870;42.812;74.628;2023-03-03T21:13:43;24.00;;;15.65;;
35745;SDS011;21870;42.812;74.628;2023-03-03T21:18:55;29.25;;;16.70;;
35745;SDS011;21870;42.812;74.628;2023-03-03T21:21:26;21.88;;;15.85;;
35745;SDS011;21870;42.812;74.628;2023-03-03T21:23:54;26.80;;;15.77;;
35745;SDS011;21870;42.812;74.628;2023-03-03T21:29:17;21.17;;;14.57;;
35745;SDS011;21870;42.812;74.628;2023-03-03T21:31:44;23.88;;;15.13;;
35745;SDS011;21870;42.812;74.628;2023-03-03T21:36:46;22.20;;;15.30;;
35745;SDS011;21870;42.812;74.628;2023-03-03T21:39:24;17.27;;;14.68;;
35745;SDS011;21870;42.812;74.628;2023-03-03T21:41:53;24.45;;;14.55;;
35745;SDS011;21870;42.812;74.628;2023-03-03T21:44:34;26.30;;;15.55;;
35745;SDS011;21870;42.812;74.628;2023-03-03T21:47:07;26.95;;;14.73;;
35745;SDS011;21870;42.812;74.628;2023-03-03T21:49:34;24.77;;;14.25;;
35745;SDS011;21870;42.812;74.628;2023-03-03T21:52:04;24.83;;;14.70;;
35745;SDS011;21870;42.812;74.628;2023-03-03T21:54:30;19.58;;;13.85;;
35745;SDS011;21870;42.812;74.628;2023-03-03T21:56:56;26.77;;;15.93;;
35745;SDS011;21870;42.812;74.628;2023-03-03T21:59:22;22.23;;;14.43;;
35745;SDS011;21870;42.812;74.628;2023-03-03T22:01:48;28.23;;;16.30;;
35745;SDS011;21870;42.812;74.628;2023-03-03T22:04:14;22.80;;;16.30;;
35745;SDS011;21870;42.812;74.628;2023-03-03T22:06:41;23.65;;;14.45;;
35745;SDS011;21870;42.812;74.628;2023-03-03T22:09:08;22.77;;;14.82;;
35745;SDS011;21870;42.812;74.628;2023-03-03T22:11:34;23.65;;;14.52;;
35745;SDS011;21870;42.812;74.628;2023-03-03T22:14:00;20.58;;;14.05;;